sensor_id;sensor_type;location;lat;lon;timestamp;pressure;altitude;pressure_sealevel;temperature;humidity
69667;BME280;66534;52.370;4.832;2023-01-28T00:00:05;103076.91;;;3.58;100.00
69667;BME280;66534;52.370;4.832;2023-01-28T00:00:38;103075.25;;;3.61;100.00
69667;BME280;66534;52.370;4.832;2023-01-28T00:01:09;103081.78;;;3.42;100.00
69667;BME280;66534;52.370;4.832;2023-01-28T00:01:41;103080.91;;;3.42;100.00
69667;BME280;66534;52.370;4.832;2023-01-28T00:02:12;103076.75;;;3.50;100.00
69667;BME280;66534;52.370;4.832;2023-01-28T00:02:43;103076.94;;;3.59;100.00
69667;BME280;66534;52.370;4.832;2023-01-28T00:03:17;103074.50;;;3.67;100.00
69667;BME280;66534;52.370;4.832;2023-01-28T00:03:50;103076.47;;;3.80;100.00
69667;BME280;66534;52.370;4.832;2023-01-28T00:04:21;103078.03;;;3.70;100.00
69667;BME280;66534;52.370;4.832;2023-01-28T00:04:51;103076.16;;;3.63;100.00
69667;BME280;66534;52.370;4.832;2023-01-28T00:05:25;103078.66;;;3.59;100.00
69667;BME280;66534;52.370;4.832;2023-01-28T00:06:04;103077.25;;;3.34;100.00
69667;BME280;66534;52.370;4.832;2023-01-28T00:06:45;103080.28;;;3.54;100.00
69667;BME280;66534;52.370;4.832;2023-01-28T00:07:15;103077.69;;;3.54;100.00
69667;BME280;66534;52.370;4.832;2023-01-28T00:07:47;103070.88;;;3.59;100.00
69667;BME280;66534;52.370;4.832;2023-01-28T00:08:18;103068.59;;;3.74;100.00
69667;BME280;66534;52.370;4.832;2023-01-28T00:08:49;103070.31;;;3.75;100.00
69667;BME280;66534;52.370;4.832;2023-01-28T00:09:20;103065.03;;;3.70;100.00
69667;BME280;66534;52.370;4.832;2023-01-28T00:09:50;103065.97;;;3.72;100.00
69667;BME280;66534;52.370;4.832;2023-01-28T00:10:21;103065.06;;;3.72;100.00
69667;BME280;66534;52.370;4.832;2023-01-28T00:10:51;103064.94;;;3.64;100.00
69667;BME280;66534;52.370;4.832;2023-01-28T00:11:22;103069.19;;;3.61;100.00
69667;BME280;66534;52.370;4.832;2023-01-28T00:11:52;103071.81;;;3.62;100.00
69667;BME280;66534;52.370;4.832;2023-01-28T00:12:22;103065.81;;;3.65;100.00
69667;BME280;66534;52.370;4.832;2023-01-28T00:12:53;103070.03;;;3.60;100.00
69667;BME280;66534;52.370;4.832;2023-01-28T00:13:23;103068.25;;;3.57;100.00
69667;BME280;66534;52.370;4.832;2023-01-28T00:13:54;103069.22;;;3.62;100.00
69667;BME280;66534;52.370;4.832;2023-01-28T00:14:24;103069.19;;;3.61;100.00
69667;BME280;66534;52.370;4.832;2023-01-28T00:14:55;103059.78;;;3.66;100.00
69667;BME280;66534;52.370;4.832;2023-01-28T00:15:25;103064.34;;;3.79;100.00
69667;BME280;66534;52.370;4.832;2023-01-28T00:15:56;103064.81;;;3.58;100.00
69667;BME280;66534;52.370;4.832;2023-01-28T00:16:31;103064.72;;;3.55;100.00
69667;BME280;66534;52.370;4.832;2023-01-28T00:17:04;103068.84;;;3.44;100.00
69667;BME280;66534;52.370;4.832;2023-01-28T00:17:35;103062.69;;;3.39;100.00
69667;BME280;66534;52.370;4.832;2023-01-28T00:18:06;103062.88;;;3.48;100.00
69667;BME280;66534;52.370;4.832;2023-01-28T00:18:36;103061.25;;;3.53;100.00
69667;BME280;66534;52.370;4.832;2023-01-28T00:19:07;103064.81;;;3.58;100.00
69667;BME280;66534;52.370;4.832;2023-01-28T00:19:38;103055.91;;;3.89;100.00
69667;BME280;66534;52.370;4.832;2023-01-28T00:20:09;103050.63;;;3.85;100.00
69667;BME280;66534;52.370;4.832;2023-01-28T00:20:40;103056.72;;;3.87;100.00
69667;BME280;66534;52.370;4.832;2023-01-28T00:21:11;103058.03;;;4.10;100.00
69667;BME280;66534;52.370;4.832;2023-01-28T00:21:42;103051.59;;;3.91;100.00
69667;BME280;66534;52.370;4.832;2023-01-28T00:22:13;103055.75;;;3.82;100.00
69667;BME280;66534;52.370;4.832;2023-01-28T00:22:47;103053.03;;;3.75;100.00
69667;BME280;66534;52.370;4.832;2023-01-28T00:23:18;103051.22;;;3.71;100.00
69667;BME280;66534;52.370;4.832;2023-01-28T00:23:52;103053.97;;;3.79;100.00
69667;BME280;66534;52.370;4.832;2023-01-28T00:24:24;103051.53;;;3.87;100.00
69667;BME280;66534;52.370;4.832;2023-01-28T00:24:55;103048.84;;;3.84;100.00
69667;BME280;66534;52.370;4.832;2023-01-28T00:25:25;103057.50;;;3.83;100.00
69667;BME280;66534;52.370;4.832;2023-01-28T00:25:59;103051.28;;;3.74;100.00
69667;BME280;66534;52.370;4.832;2023-01-28T00:26:31;103048.53;;;3.67;100.00
69667;BME280;66534;52.370;4.832;2023-01-28T00:27:01;103050.31;;;3.69;100.00
69667;BME280;66534;52.370;4.832;2023-01-28T00:27:32;103048.84;;;3.84;100.00
69667;BME280;66534;52.370;4.832;2023-01-28T00:28:02;103048.81;;;3.81;100.00
69667;BME280;66534;52.370;4.832;2023-01-28T00:28:33;103047.91;;;3.80;100.00
69667;BME280;66534;52.370;4.832;2023-01-28T00:29:04;103053.16;;;3.82;100.00
69667;BME280;66534;52.370;4.832;2023-01-28T00:29:35;103053.16;;;3.82;100.00
69667;BME280;66534;52.370;4.832;2023-01-28T00:30:06;103048.06;;;3.88;100.00
69667;BME280;66534;52.370;4.832;2023-01-28T00:30:37;103047.63;;;4.10;100.00
69667;BME280;66534;52.370;4.832;2023-01-28T00:31:08;103052.78;;;4.09;100.00
69667;BME280;66534;52.370;4.832;2023-01-28T00:31:42;103052.84;;;4.13;100.00
69667;BME280;66534;52.370;4.832;2023-01-28T00:32:12;103048.63;;;4.18;100.00
69667;BME280;66534;52.370;4.832;2023-01-28T00:32:42;103051.31;;;4.23;100.00
69667;BME280;66534;52.370;4.832;2023-01-28T00:33:13;103051.41;;;4.29;100.00
69667;BME280;66534;52.370;4.832;2023-01-28T00:33:44;103054.34;;;4.50;100.00
69667;BME280;66534;52.370;4.832;2023-01-28T00:34:16;103054.41;;;4.55;100.00
69667;BME280;66534;52.370;4.832;2023-01-28T00:34:46;103050.59;;;4.33;100.00
69667;BME280;66534;52.370;4.832;2023-01-28T00:35:19;103053.97;;;4.28;100.00
69667;BME280;66534;52.370;4.832;2023-01-28T00:36:07;103057.31;;;4.19;100.00
69667;BME280;66534;52.370;4.832;2023-01-28T00:36:38;103058.09;;;4.16;100.00
69667;BME280;66534;52.370;4.832;2023-01-28T00:37:08;103062.66;;;4.28;100.00
69667;BME280;66534;52.370;4.832;2023-01-28T00:37:39;103055.00;;;4.37;100.00
69667;BME280;66534;52.370;4.832;2023-01-28T00:38:09;103063.75;;;4.42;100.00
69667;BME280;66534;52.370;4.832;2023-01-28T00:38:40;103055.06;;;4.40;100.00
69667;BME280;66534;52.370;4.832;2023-01-28T00:39:13;103066.09;;;4.27;100.00
69667;BME280;66534;52.370;4.832;2023-01-28T00:39:44;103056.53;;;4.26;100.00
69667;BME280;66534;52.370;4.832;2023-01-28T00:40:16;103063.47;;;4.25;100.00
69667;BME280;66534;52.370;4.832;2023-01-28T00:40:46;103058.03;;;4.12;100.00
69667;BME280;66534;52.370;4.832;2023-01-28T00:41:17;103058.88;;;4.11;100.00
69667;BME280;66534;52.370;4.832;2023-01-28T00:41:52;103061.56;;;4.15;100.00
69667;BME280;66534;52.370;4.832;2023-01-28T00:42:23;103060.53;;;4.06;100.00
69667;BME280;66534;52.370;4.832;2023-01-28T00:42:53;103061.34;;;4.03;100.00
69667;BME280;66534;52.370;4.832;2023-01-28T00:43:24;103061.03;;;3.88;100.00
69667;BME280;66534;52.370;4.832;2023-01-28T00:43:54;103061.91;;;3.87;100.00
69667;BME280;66534;52.370;4.832;2023-01-28T00:44:25;103062.59;;;3.77;100.00
69667;BME280;66534;52.370;4.832;2023-01-28T00:44:56;103059.25;;;3.84;100.00
69667;BME280;66534;52.370;4.832;2023-01-28T00:45:26;103059.31;;;3.88;100.00
69667;BME280;66534;52.370;4.832;2023-01-28T00:45:57;103058.75;;;4.03;100.00
69667;BME280;66534;52.370;4.832;2023-01-28T00:46:27;103060.94;;;3.82;100.00
69667;BME280;66534;52.370;4.832;2023-01-28T00:46:58;103057.94;;;3.60;100.00
69667;BME280;66534;52.370;4.832;2023-01-28T00:47:30;103061.25;;;3.55;100.00
69667;BME280;66534;52.370;4.832;2023-01-28T00:48:00;103062.34;;;3.64;100.00
69667;BME280;66534;52.370;4.832;2023-01-28T00:48:30;103059.63;;;3.58;100.00
69667;BME280;66534;52.370;4.832;2023-01-28T00:49:01;103060.97;;;3.83;100.00
69667;BME280;66534;52.370;4.832;2023-01-28T00:49:31;103061.69;;;3.76;100.00
69667;BME280;66534;52.370;4.832;2023-01-28T00:50:02;103064.97;;;3.66;100.00
69667;BME280;66534;52.370;4.832;2023-01-28T00:50:33;103059.25;;;3.84;100.00
69667;BME280;66534;52.370;4.832;2023-01-28T00:51:04;103066.16;;;3.83;100.00
69667;BME280;66534;52.370;4.832;2023-01-28T00:51:35;103061.97;;;3.90;100.00
69667;BME280;66534;52.370;4.832;2023-01-28T00:52:05;103064.66;;;3.96;100.00
69667;BME280;66534;52.370;4.832;2023-01-28T00:52:36;103054.91;;;3.83;100.00
69667;BME280;66534;52.370;4.832;2023-01-28T00:53:06;103060.78;;;3.72;100.00
69667;BME280;66534;52.370;4.832;2023-01-28T00:53:37;103058.34;;;3.82;100.00
69667;BME280;66534;52.370;4.832;2023-01-28T00:54:10;103054.88;;;3.81;100.00
69667;BME280;66534;52.370;4.832;2023-01-28T00:54:42;103062.59;;;3.78;100.00
69667;BME280;66534;52.370;4.832;2023-01-28T00:55:13;103064.28;;;3.76;100.00
69667;BME280;66534;52.370;4.832;2023-01-28T00:55:43;103060.56;;;3.62;100.00
69667;BME280;66534;52.370;4.832;2023-01-28T00:56:15;103060.41;;;3.54;100.00
69667;BME280;66534;52.370;4.832;2023-01-28T00:56:47;103056.94;;;3.55;100.00
69667;BME280;66534;52.370;4.832;2023-01-28T00:57:17;103060.78;;;3.72;100.00
69667;BME280;66534;52.370;4.832;2023-01-28T00:57:47;103058.34;;;3.82;100.00
69667;BME280;66534;52.370;4.832;2023-01-28T00:58:18;103060.25;;;3.92;100.00
69667;BME280;66534;52.370;4.832;2023-01-28T00:58:49;103057.63;;;3.89;100.00
69667;BME280;66534;52.370;4.832;2023-01-28T00:59:20;103059.94;;;3.73;100.00
69667;BME280;66534;52.370;4.832;2023-01-28T00:59:50;103060.28;;;3.48;100.00
69667;BME280;66534;52.370;4.832;2023-01-28T01:00:21;103061.00;;;3.42;100.00
69667;BME280;66534;52.370;4.832;2023-01-28T01:00:54;103064.81;;;3.58;100.00
69667;BME280;66534;52.370;4.832;2023-01-28T01:01:25;103065.97;;;3.72;100.00
69667;BME280;66534;52.370;4.832;2023-01-28T01:01:56;103059.00;;;3.71;100.00
69667;BME280;66534;52.370;4.832;2023-01-28T01:02:41;103057.47;;;3.81;100.00
69667;BME280;66534;52.370;4.832;2023-01-28T01:03:11;103059.53;;;3.99;100.00
69667;BME280;66534;52.370;4.832;2023-01-28T01:03:42;103052.47;;;3.92;100.00
69667;BME280;66534;52.370;4.832;2023-01-28T01:04:13;103059.31;;;3.88;100.00
69667;BME280;66534;52.370;4.832;2023-01-28T01:04:55;103054.81;;;3.78;100.00
69667;BME280;66534;52.370;4.832;2023-01-28T01:05:28;103051.31;;;3.76;100.00
69667;BME280;66534;52.370;4.832;2023-01-28T01:05:59;103057.66;;;3.92;100.00
69667;BME280;66534;52.370;4.832;2023-01-28T01:06:31;103058.72;;;4.02;100.00
69667;BME280;66534;52.370;4.832;2023-01-28T01:07:04;103056.94;;;3.99;100.00
69667;BME280;66534;52.370;4.832;2023-01-28T01:07:34;103062.16;;;4.00;100.00
69667;BME280;66534;52.370;4.832;2023-01-28T01:08:10;103061.19;;;3.94;100.00
69667;BME280;66534;52.370;4.832;2023-01-28T01:08:41;103059.75;;;4.10;100.00
69667;BME280;66534;52.370;4.832;2023-01-28T01:09:12;103059.69;;;4.07;100.00
69667;BME280;66534;52.370;4.832;2023-01-28T01:09:42;103061.56;;;4.15;100.00
69667;BME280;66534;52.370;4.832;2023-01-28T01:10:14;103058.03;;;4.12;100.00
69667;BME280;66534;52.370;4.832;2023-01-28T01:10:47;103062.34;;;4.11;100.00
69667;BME280;66534;52.370;4.832;2023-01-28T01:11:17;103058.28;;;3.77;100.00
69667;BME280;66534;52.370;4.832;2023-01-28T01:11:48;103055.44;;;3.66;100.00
69667;BME280;66534;52.370;4.832;2023-01-28T01:12:18;103057.97;;;3.63;100.00
69667;BME280;66534;52.370;4.832;2023-01-28T01:12:49;103057.19;;;3.67;100.00
69667;BME280;66534;52.370;4.832;2023-01-28T01:13:19;103056.22;;;3.62;100.00
69667;BME280;66534;52.370;4.832;2023-01-28T01:13:53;103063.16;;;3.63;100.00
69667;BME280;66534;52.370;4.832;2023-01-28T01:14:25;103063.78;;;3.50;100.00
69667;BME280;66534;52.370;4.832;2023-01-28T01:14:56;103056.28;;;3.64;100.00
69667;BME280;66534;52.370;4.832;2023-01-28T01:15:26;103056.78;;;3.91;100.00
69667;BME280;66534;52.370;4.832;2023-01-28T01:16:13;103058.44;;;3.86;100.00
69667;BME280;66534;52.370;4.832;2023-01-28T01:16:47;103054.91;;;3.83;100.00
69667;BME280;66534;52.370;4.832;2023-01-28T01:17:17;103048.28;;;3.55;100.00
69667;BME280;66534;52.370;4.832;2023-01-28T01:17:49;103055.03;;;3.45;100.00
69667;BME280;66534;52.370;4.832;2023-01-28T01:18:20;103061.19;;;3.50;100.00
69667;BME280;66534;52.370;4.832;2023-01-28T01:18:51;103055.13;;;3.51;100.00
69667;BME280;66534;52.370;4.832;2023-01-28T01:19:22;103068.78;;;3.41;100.00
69667;BME280;66534;52.370;4.832;2023-01-28T01:19:52;103060.22;;;3.46;100.00
69667;BME280;66534;52.370;4.832;2023-01-28T01:20:24;103059.31;;;3.43;100.00
69667;BME280;66534;52.370;4.832;2023-01-28T01:20:56;103059.53;;;3.54;100.00
69667;BME280;66534;52.370;4.832;2023-01-28T01:21:28;102834.88;;;2.30;100.00
69667;BME280;66534;52.370;4.832;2023-01-28T01:21:59;103057.72;;;3.51;100.00
69667;BME280;66534;52.370;4.832;2023-01-28T01:22:34;103062.22;;;3.58;100.00
69667;BME280;66534;52.370;4.832;2023-01-28T01:23:05;103056.94;;;3.54;100.00
69667;BME280;66534;52.370;4.832;2023-01-28T01:23:35;103052.31;;;3.84;100.00
69667;BME280;66534;52.370;4.832;2023-01-28T01:24:06;103054.25;;;3.94;100.00
69667;BME280;66534;52.370;4.832;2023-01-28T01:24:37;103053.16;;;3.82;100.00
69667;BME280;66534;52.370;4.832;2023-01-28T01:25:08;103048.44;;;3.62;100.00
69667;BME280;66534;52.370;4.832;2023-01-28T01:25:38;103053.56;;;3.58;100.00
69667;BME280;66534;52.370;4.832;2023-01-28T01:26:09;103053.09;;;3.80;100.00
69667;BME280;66534;52.370;4.832;2023-01-28T01:26:40;103047.97;;;3.83;100.00
69667;BME280;66534;52.370;4.832;2023-01-28T01:27:10;103050.50;;;3.80;100.00
69667;BME280;66534;52.370;4.832;2023-01-28T01:27:41;103062.13;;;3.55;100.00
69667;BME280;66534;52.370;4.832;2023-01-28T01:28:12;103050.09;;;3.59;100.00
69667;BME280;66534;52.370;4.832;2023-01-28T01:28:44;103044.72;;;3.48;100.00
69667;BME280;66534;52.370;4.832;2023-01-28T01:29:15;103057.47;;;3.37;100.00
69667;BME280;66534;52.370;4.832;2023-01-28T01:29:46;103058.13;;;3.29;100.00
69667;BME280;66534;52.370;4.832;2023-01-28T01:30:16;103054.78;;;3.33;100.00
69667;BME280;66534;52.370;4.832;2023-01-28T01:30:47;103054.25;;;3.49;100.00
69667;BME280;66534;52.370;4.832;2023-01-28T01:31:19;103061.19;;;3.50;100.00
69667;BME280;66534;52.370;4.832;2023-01-28T01:31:50;103064.47;;;3.41;100.00
69667;BME280;66534;52.370;4.832;2023-01-28T01:32:21;103064.44;;;3.40;100.00
69667;BME280;66534;52.370;4.832;2023-01-28T01:32:52;103065.94;;;3.30;100.00
69667;BME280;66534;52.370;4.832;2023-01-28T01:33:22;103063.31;;;3.27;100.00
69667;BME280;66534;52.370;4.832;2023-01-28T01:33:52;103063.25;;;3.24;100.00
69667;BME280;66534;52.370;4.832;2023-01-28T01:34:23;103066.84;;;3.31;100.00
69667;BME280;66534;52.370;4.832;2023-01-28T01:34:53;103069.28;;;3.24;100.00
69667;BME280;66534;52.370;4.832;2023-01-28T01:35:24;103062.28;;;3.20;100.00
69667;BME280;66534;52.370;4.832;2023-01-28T01:35:55;103067.41;;;3.17;100.00
69667;BME280;66534;52.370;4.832;2023-01-28T01:36:26;103069.19;;;3.20;100.00
69667;BME280;66534;52.370;4.832;2023-01-28T01:36:58;103057.16;;;3.22;100.00
69667;BME280;66534;52.370;4.832;2023-01-28T01:37:28;103062.38;;;3.25;100.00
69667;BME280;66534;52.370;4.832;2023-01-28T01:37:59;103060.75;;;3.30;100.00
69667;BME280;66534;52.370;4.832;2023-01-28T01:38:29;103056.22;;;3.18;100.00
69667;BME280;66534;52.370;4.832;2023-01-28T01:39:00;103064.16;;;3.26;100.00
69667;BME280;66534;52.370;4.832;2023-01-28T01:39:30;103065.28;;;3.39;100.00
69667;BME280;66534;52.370;4.832;2023-01-28T01:40:01;103061.97;;;3.46;100.00
69667;BME280;66534;52.370;4.832;2023-01-28T01:40:34;103056.72;;;3.43;100.00
69667;BME280;66534;52.370;4.832;2023-01-28T01:41:04;103053.91;;;3.32;100.00
69667;BME280;66534;52.370;4.832;2023-01-28T01:41:36;103062.63;;;3.36;100.00
69667;BME280;66534;52.370;4.832;2023-01-28T01:42:09;103060.41;;;3.54;100.00
69667;BME280;66534;52.370;4.832;2023-01-28T01:42:42;103063.25;;;3.66;100.00
69667;BME280;66534;52.370;4.832;2023-01-28T01:43:16;103055.34;;;3.60;100.00
69667;BME280;66534;52.370;4.832;2023-01-28T01:43:52;103052.22;;;3.77;100.00
69667;BME280;66534;52.370;4.832;2023-01-28T01:44:51;103059.22;;;3.82;100.00
69667;BME280;66534;52.370;4.832;2023-01-28T01:45:33;103056.84;;;3.49;100.00
69667;BME280;66534;52.370;4.832;2023-01-28T01:46:04;103064.25;;;3.31;100.00
69667;BME280;66534;52.370;4.832;2023-01-28T01:46:39;103063.22;;;3.22;100.00
69667;BME280;66534;52.370;4.832;2023-01-28T01:47:14;103059.00;;;3.29;100.00
69667;BME280;66534;52.370;4.832;2023-01-28T01:47:49;103056.38;;;3.26;100.00
69667;BME280;66534;52.370;4.832;2023-01-28T01:48:32;103058.31;;;3.36;100.00
69667;BME280;66534;52.370;4.832;2023-01-28T01:49:07;103054.88;;;3.37;100.00
69667;BME280;66534;52.370;4.832;2023-01-28T01:49:42;103055.09;;;3.48;100.00
69667;BME280;66534;52.370;4.832;2023-01-28T01:50:16;103053.56;;;3.59;100.00
69667;BME280;66534;52.370;4.832;2023-01-28T01:50:52;103050.31;;;3.69;100.00
69667;BME280;66534;52.370;4.832;2023-01-28T01:51:29;103052.94;;;3.69;100.00
69667;BME280;66534;52.370;4.832;2023-01-28T01:52:02;103052.91;;;3.68;100.00
69667;BME280;66534;52.370;4.832;2023-01-28T01:52:39;103066.84;;;3.73;100.00
69667;BME280;66534;52.370;4.832;2023-01-28T01:53:13;103051.97;;;3.66;100.00
69667;BME280;66534;52.370;4.832;2023-01-28T01:53:47;103048.44;;;3.61;100.00
69667;BME280;66534;52.370;4.832;2023-01-28T01:54:20;103055.09;;;3.48;100.00
69667;BME280;66534;52.370;4.832;2023-01-28T01:54:56;103053.69;;;3.64;100.00
69667;BME280;66534;52.370;4.832;2023-01-28T01:55:31;103055.59;;;3.72;100.00
69667;BME280;66534;52.370;4.832;2023-01-28T01:56:05;103051.19;;;3.70;100.00
69667;BME280;66534;52.370;4.832;2023-01-28T01:56:40;103050.09;;;3.57;100.00
69667;BME280;66534;52.370;4.832;2023-01-28T01:57:16;103053.47;;;3.55;100.00
69667;BME280;66534;52.370;4.832;2023-01-28T01:57:52;103053.72;;;3.65;100.00
69667;BME280;66534;52.370;4.832;2023-01-28T01:58:25;103053.06;;;3.77;100.00
69667;BME280;66534;52.370;4.832;2023-01-28T01:59:00;103057.25;;;3.70;100.00
69667;BME280;66534;52.370;4.832;2023-01-28T01:59:31;103056.31;;;3.67;100.00
69667;BME280;66534;52.370;4.832;2023-01-28T02:00:04;103050.09;;;3.59;100.00
69667;BME280;66534;52.370;4.832;2023-01-28T02:00:36;103054.34;;;3.55;100.00
69667;BME280;66534;52.370;4.832;2023-01-28T02:01:08;103052.44;;;3.45;100.00
69667;BME280;66534;52.370;4.832;2023-01-28T02:01:39;103050.59;;;3.39;100.00
69667;BME280;66534;52.370;4.832;2023-01-28T02:02:11;103052.16;;;3.31;100.00
69667;BME280;66534;52.370;4.832;2023-01-28T02:02:44;103062.47;;;3.28;100.00
69667;BME280;66534;52.370;4.832;2023-01-28T02:03:17;103059.69;;;3.20;100.00
69667;BME280;66534;52.370;4.832;2023-01-28T02:04:00;103059.69;;;3.20;100.00
69667;BME280;66534;52.370;4.832;2023-01-28T02:04:38;103060.63;;;3.22;100.00
69667;BME280;66534;52.370;4.832;2023-01-28T02:05:14;103064.03;;;3.21;100.00
69667;BME280;66534;52.370;4.832;2023-01-28T02:05:48;103057.94;;;3.18;100.00
69667;BME280;66534;52.370;4.832;2023-01-28T02:06:19;103061.41;;;3.20;100.00
69667;BME280;66534;52.370;4.832;2023-01-28T02:06:51;103068.94;;;3.09;100.00
69667;BME280;66534;52.370;4.832;2023-01-28T02:07:22;103053.66;;;3.21;100.00
69667;BME280;66534;52.370;4.832;2023-01-28T02:07:53;103056.47;;;3.31;100.00
69667;BME280;66534;52.370;4.832;2023-01-28T02:08:47;103063.59;;;3.42;100.00
69667;BME280;66534;52.370;4.832;2023-01-28T02:09:56;103059.69;;;3.61;100.00
69667;BME280;66534;52.370;4.832;2023-01-28T02:10:26;103070.06;;;3.61;100.00
69667;BME280;66534;52.370;4.832;2023-01-28T02:10:58;103064.09;;;3.65;100.00
69667;BME280;66534;52.370;4.832;2023-01-28T02:11:33;103072.41;;;3.49;100.00
69667;BME280;66534;52.370;4.832;2023-01-28T02:12:11;103066.69;;;3.24;100.00
69667;BME280;66534;52.370;4.832;2023-01-28T02:12:46;103069.53;;;3.35;100.00
69667;BME280;66534;52.370;4.832;2023-01-28T02:13:26;103071.22;;;3.33;100.00
69667;BME280;66534;52.370;4.832;2023-01-28T02:14:01;103070.13;;;3.22;100.00
69667;BME280;66534;52.370;4.832;2023-01-28T02:14:34;103071.97;;;3.28;100.00
69667;BME280;66534;52.370;4.832;2023-01-28T02:15:09;103063.50;;;3.36;100.00
69667;BME280;66534;52.370;4.832;2023-01-28T02:15:46;103075.09;;;3.13;100.00
69667;BME280;66534;52.370;4.832;2023-01-28T02:16:18;103071.78;;;3.18;100.00
69667;BME280;66534;52.370;4.832;2023-01-28T02:16:49;103074.38;;;3.20;100.00
69667;BME280;66534;52.370;4.832;2023-01-28T02:17:19;103068.50;;;3.27;100.00
69667;BME280;66534;52.370;4.832;2023-01-28T02:17:51;103069.53;;;3.35;100.00
69667;BME280;66534;52.370;4.832;2023-01-28T02:18:22;103070.41;;;3.36;100.00
69667;BME280;66534;52.370;4.832;2023-01-28T02:18:52;103067.28;;;3.52;100.00
69667;BME280;66534;52.370;4.832;2023-01-28T02:19:23;103071.59;;;3.52;100.00
69667;BME280;66534;52.370;4.832;2023-01-28T02:24:53;103075.59;;;3.36;100.00
69667;BME280;66534;52.370;4.832;2023-01-28T02:27:08;103074.88;;;3.43;100.00
69667;BME280;66534;52.370;4.832;2023-01-28T02:28:08;103074.31;;;3.58;100.00
69667;BME280;66534;52.370;4.832;2023-01-28T02:30:06;103075.94;;;3.53;100.00
69667;BME280;66534;52.370;4.832;2023-01-28T02:31:38;103065.72;;;3.60;100.00
69667;BME280;66534;52.370;4.832;2023-01-28T02:32:14;103067.56;;;3.66;100.00
69667;BME280;66534;52.370;4.832;2023-01-28T02:33:28;103066.00;;;3.32;100.00
69667;BME280;66534;52.370;4.832;2023-01-28T02:36:01;103072.69;;;3.63;100.00
69667;BME280;66534;52.370;4.832;2023-01-28T02:37:57;103073.59;;;3.65;100.00
69667;BME280;66534;52.370;4.832;2023-01-28T02:38:36;103072.69;;;3.63;100.00
69667;BME280;66534;52.370;4.832;2023-01-28T02:39:15;103070.69;;;3.49;100.00
69667;BME280;66534;52.370;4.832;2023-01-28T02:39:59;103071.41;;;3.42;100.00
69667;BME280;66534;52.370;4.832;2023-01-28T02:40:36;103074.22;;;3.53;100.00
69667;BME280;66534;52.370;4.832;2023-01-28T02:41:33;103072.34;;;3.46;100.00
69667;BME280;66534;52.370;4.832;2023-01-28T02:42:11;103065.34;;;3.42;100.00
69667;BME280;66534;52.370;4.832;2023-01-28T02:42:46;103071.31;;;3.38;100.00
69667;BME280;66534;52.370;4.832;2023-01-28T02:43:17;103075.88;;;3.49;100.00
69667;BME280;66534;52.370;4.832;2023-01-28T02:43:47;103071.88;;;3.65;100.00
69667;BME280;66534;52.370;4.832;2023-01-28T02:44:18;103064.34;;;3.78;100.00
69667;BME280;66534;52.370;4.832;2023-01-28T02:44:49;103063.47;;;3.79;100.00
69667;BME280;66534;52.370;4.832;2023-01-28T02:45:20;103066.84;;;3.74;100.00
69667;BME280;66534;52.370;4.832;2023-01-28T02:47:14;103068.81;;;3.86;100.00
69667;BME280;66534;52.370;4.832;2023-01-28T02:48:04;103064.41;;;3.82;100.00
69667;BME280;66534;52.370;4.832;2023-01-28T02:48:34;103061.75;;;3.79;100.00
69667;BME280;66534;52.370;4.832;2023-01-28T02:49:39;103068.47;;;3.68;100.00
69667;BME280;66534;52.370;4.832;2023-01-28T02:50:16;103064.41;;;3.82;100.00
69667;BME280;66534;52.370;4.832;2023-01-28T02:51:04;103067.88;;;3.83;100.00
69667;BME280;66534;52.370;4.832;2023-01-28T02:53:39;103064.50;;;3.88;100.00
69667;BME280;66534;52.370;4.832;2023-01-28T02:55:22;103062.28;;;4.08;100.00
69667;BME280;66534;52.370;4.832;2023-01-28T02:56:14;103065.50;;;3.93;100.00
69667;BME280;66534;52.370;4.832;2023-01-28T02:58:01;103063.28;;;3.68;100.00
69667;BME280;66534;52.370;4.832;2023-01-28T02:59:22;103063.72;;;3.91;100.00
69667;BME280;66534;52.370;4.832;2023-01-28T03:00:19;103066.47;;;4.00;100.00
69667;BME280;66534;52.370;4.832;2023-01-28T03:01:00;103061.19;;;3.95;100.00
69667;BME280;66534;52.370;4.832;2023-01-28T03:04:22;103066.22;;;3.86;100.00
69667;BME280;66534;52.370;4.832;2023-01-28T03:05:00;103075.50;;;3.73;100.00
69667;BME280;66534;52.370;4.832;2023-01-28T03:05:57;103066.53;;;3.58;100.00
69667;BME280;66534;52.370;4.832;2023-01-28T03:06:35;103065.22;;;3.80;100.00
69667;BME280;66534;52.370;4.832;2023-01-28T03:07:09;103064.94;;;3.64;100.00
69667;BME280;66534;52.370;4.832;2023-01-28T03:07:43;103070.00;;;3.58;100.00
69667;BME280;66534;52.370;4.832;2023-01-28T03:08:14;103056.38;;;3.68;100.00
69667;BME280;66534;52.370;4.832;2023-01-28T03:09:21;103065.69;;;3.59;100.00
69667;BME280;66534;52.370;4.832;2023-01-28T03:09:56;103064.72;;;3.54;100.00
69667;BME280;66534;52.370;4.832;2023-01-28T03:10:31;103063.72;;;3.47;100.00
69667;BME280;66534;52.370;4.832;2023-01-28T03:11:01;103060.91;;;3.36;100.00
69667;BME280;66534;52.370;4.832;2023-01-28T03:12:08;103059.53;;;3.54;100.00
69667;BME280;66534;52.370;4.832;2023-01-28T03:13:01;103064.09;;;3.67;100.00
69667;BME280;66534;52.370;4.832;2023-01-28T03:13:50;103067.28;;;3.52;100.00
69667;BME280;66534;52.370;4.832;2023-01-28T03:14:39;103065.59;;;3.54;100.00
69667;BME280;66534;52.370;4.832;2023-01-28T03:15:31;103060.66;;;3.25;100.00
69667;BME280;66534;52.370;4.832;2023-01-28T03:16:23;103060.41;;;3.13;100.00
69667;BME280;66534;52.370;4.832;2023-01-28T03:17:20;103057.88;;;3.16;100.00
69667;BME280;66534;52.370;4.832;2023-01-28T03:18:39;103064.00;;;3.20;100.00
69667;BME280;66534;52.370;4.832;2023-01-28T03:19:36;103063.69;;;3.45;100.00
69667;BME280;66534;52.370;4.832;2023-01-28T03:20:26;103068.22;;;3.56;100.00
69667;BME280;66534;52.370;4.832;2023-01-28T03:21:21;103058.97;;;3.70;100.00